This is the latest recevied weather packets stored in our database for station/object KD7AWQ. If no packets are shown the sender has not sent any weather packets the latest 10 day(s).
| Time | Temp. | Humidity | Pressure | Rain* | Wind** | Luminosity | Snow |
|---|---|---|---|---|---|---|---|
| 1777657129 | 20° C | 37% | 1183.2 hPa | 0 mm | - | 969 W/m² | - |
| 1777656826 | 20.56° C | 36% | 1183.2 hPa | 0 mm | - | 957 W/m² | - |
| 1777656521 | 20.56° C | 36% | 1183.1 hPa | 0 mm | - | 945 W/m² | - |
| 1777656217 | 20° C | 39% | 1183 hPa | 0 mm | - | 932 W/m² | - |
| 1777655912 | 20.56° C | 37% | 1183.1 hPa | 0 mm | - | 921 W/m² | - |
| 1777655610 | 20.56° C | 36% | 1183.3 hPa | 0 mm | - | 908 W/m² | - |
| 1777655306 | 21.11° C | 36% | 1183 hPa | 0 mm | - | 895 W/m² | - |
| 1777655003 | 20.56° C | 38% | 1183.1 hPa | 0 mm | - | 878 W/m² | - |
| 1777654700 | 20° C | 40% | 1183.1 hPa | 0 mm | - | 863 W/m² | - |
| 1777654398 | 20.56° C | 38% | 1182.9 hPa | 0 mm | - | 850 W/m² | - |
| 1777654096 | 20.56° C | 38% | 1182.9 hPa | 0 mm | - | 833 W/m² | - |
| 1777653794 | 20.56° C | 37% | 1183.1 hPa | 0 mm | - | 818 W/m² | - |
| 1777653489 | 20.56° C | 37% | 1183.3 hPa | 0 mm | - | 801 W/m² | - |
| 1777653186 | 20° C | 38% | 1183 hPa | 0 mm | - | 784 W/m² | - |
| 1777652883 | 20° C | 39% | 1183.1 hPa | 0 mm | - | 768 W/m² | - |
| 1777652580 | 18.89° C | 41% | 1183.3 hPa | 0 mm | - | 750 W/m² | - |
| 1777652275 | 18.89° C | 41% | 1183 hPa | 0 mm | - | 733 W/m² | - |
| 1777651973 | 19.44° C | 42% | 1182.9 hPa | 0 mm | - | 716 W/m² | - |
| 1777651669 | 18.89° C | 41% | 1183 hPa | 0 mm | - | 696 W/m² | - |
| 1777651366 | 18.89° C | 41% | 1182.9 hPa | 0 mm | - | 678 W/m² | - |
| 1777651064 | 18.89° C | 43% | 1183 hPa | 0 mm | - | 660 W/m² | - |
| 1777650761 | 18.89° C | 42% | 1182.7 hPa | 0 mm | - | 638 W/m² | - |
| 1777650458 | 18.33° C | 44% | 1182.8 hPa | 0 mm | - | 618 W/m² | - |
| 1777650154 | 18.33° C | 44% | 1182.9 hPa | 0 mm | - | 598 W/m² | - |
| 1777649847 | 18.33° C | 45% | 1182.9 hPa | 0 mm | - | 577 W/m² | - |
* Rain latest hour (hover to see other rain measurements)
** Current wind speed in m/s (hover to see current wind gust speed)